sensor_id;sensor_type;location;lat;lon;timestamp;temperature;humidity
78696;SHT31;68030;51.980;5.646;2023-07-13T00:01:29;20.3;57.2
78696;SHT31;68030;51.980;5.646;2023-07-13T00:03:59;20.3;57.3
78696;SHT31;68030;51.980;5.646;2023-07-13T00:06:28;20.3;56.9
78696;SHT31;68030;51.980;5.646;2023-07-13T00:09:00;20.3;56.3
78696;SHT31;68030;51.980;5.646;2023-07-13T00:11:29;20.3;56.1
78696;SHT31;68030;51.980;5.646;2023-07-13T00:13:58;20.3;56.0
78696;SHT31;68030;51.980;5.646;2023-07-13T00:16:28;20.3;55.8
78696;SHT31;68030;51.980;5.646;2023-07-13T00:18:57;20.2;55.8
78696;SHT31;68030;51.980;5.646;2023-07-13T00:21:27;20.2;55.8
78696;SHT31;68030;51.980;5.646;2023-07-13T00:23:56;20.2;55.9
78696;SHT31;68030;51.980;5.646;2023-07-13T00:26:27;20.1;56.0
78696;SHT31;68030;51.980;5.646;2023-07-13T00:28:57;20.1;56.0
78696;SHT31;68030;51.980;5.646;2023-07-13T00:31:26;20.1;56.1
78696;SHT31;68030;51.980;5.646;2023-07-13T00:33:55;20.0;56.4
78696;SHT31;68030;51.980;5.646;2023-07-13T00:36:26;20.0;56.2
78696;SHT31;68030;51.980;5.646;2023-07-13T00:38:55;20.0;56.6
78696;SHT31;68030;51.980;5.646;2023-07-13T00:41:26;19.9;56.7
78696;SHT31;68030;51.980;5.646;2023-07-13T00:43:54;19.9;56.9
78696;SHT31;68030;51.980;5.646;2023-07-13T00:46:26;19.9;57.2
78696;SHT31;68030;51.980;5.646;2023-07-13T00:49:00;19.9;57.8
78696;SHT31;68030;51.980;5.646;2023-07-13T00:51:38;19.8;57.6
78696;SHT31;68030;51.980;5.646;2023-07-13T00:54:13;19.8;57.4
78696;SHT31;68030;51.980;5.646;2023-07-13T00:56:47;19.8;57.6
78696;SHT31;68030;51.980;5.646;2023-07-13T00:59:20;19.8;57.6
78696;SHT31;68030;51.980;5.646;2023-07-13T01:01:51;19.8;57.7
78696;SHT31;68030;51.980;5.646;2023-07-13T01:04:20;19.7;57.7
78696;SHT31;68030;51.980;5.646;2023-07-13T01:06:49;19.7;57.7
78696;SHT31;68030;51.980;5.646;2023-07-13T01:09:17;19.7;57.9
78696;SHT31;68030;51.980;5.646;2023-07-13T01:11:49;19.7;57.9
78696;SHT31;68030;51.980;5.646;2023-07-13T01:14:17;19.7;58.0
78696;SHT31;68030;51.980;5.646;2023-07-13T01:16:48;19.6;58.1
78696;SHT31;68030;51.980;5.646;2023-07-13T01:19:30;19.6;58.3
78696;SHT31;68030;51.980;5.646;2023-07-13T01:22:03;19.6;58.3
78696;SHT31;68030;51.980;5.646;2023-07-13T01:24:35;19.6;58.3
78696;SHT31;68030;51.980;5.646;2023-07-13T01:27:07;19.6;58.4
78696;SHT31;68030;51.980;5.646;2023-07-13T01:29:38;19.5;58.6
78696;SHT31;68030;51.980;5.646;2023-07-13T01:32:10;19.5;58.7
78696;SHT31;68030;51.980;5.646;2023-07-13T01:34:39;19.5;58.6
78696;SHT31;68030;51.980;5.646;2023-07-13T01:37:11;19.5;58.8
78696;SHT31;68030;51.980;5.646;2023-07-13T01:39:40;19.5;58.8
78696;SHT31;68030;51.980;5.646;2023-07-13T01:42:09;19.5;58.9
78696;SHT31;68030;51.980;5.646;2023-07-13T01:44:38;19.5;58.7
78696;SHT31;68030;51.980;5.646;2023-07-13T01:47:08;19.5;58.7
78696;SHT31;68030;51.980;5.646;2023-07-13T01:49:36;19.4;58.7
78696;SHT31;68030;51.980;5.646;2023-07-13T01:52:08;19.4;58.7
78696;SHT31;68030;51.980;5.646;2023-07-13T01:54:36;19.4;58.8
78696;SHT31;68030;51.980;5.646;2023-07-13T01:57:06;19.4;59.0
78696;SHT31;68030;51.980;5.646;2023-07-13T01:59:35;19.4;59.0
78696;SHT31;68030;51.980;5.646;2023-07-13T02:02:04;19.3;59.0
78696;SHT31;68030;51.980;5.646;2023-07-13T02:04:34;19.3;59.2
78696;SHT31;68030;51.980;5.646;2023-07-13T02:07:03;19.3;59.5
78696;SHT31;68030;51.980;5.646;2023-07-13T02:09:33;19.3;59.5
78696;SHT31;68030;51.980;5.646;2023-07-13T02:12:02;19.3;59.3
78696;SHT31;68030;51.980;5.646;2023-07-13T02:14:31;19.2;59.4
78696;SHT31;68030;51.980;5.646;2023-07-13T02:17:00;19.2;59.5
78696;SHT31;68030;51.980;5.646;2023-07-13T02:19:31;19.2;59.4
78696;SHT31;68030;51.980;5.646;2023-07-13T02:22:02;19.1;59.4
78696;SHT31;68030;51.980;5.646;2023-07-13T02:24:31;19.1;59.7
78696;SHT31;68030;51.980;5.646;2023-07-13T02:27:01;19.1;59.7
78696;SHT31;68030;51.980;5.646;2023-07-13T02:29:31;19.1;59.9
78696;SHT31;68030;51.980;5.646;2023-07-13T02:32:00;19.0;60.2
78696;SHT31;68030;51.980;5.646;2023-07-13T02:34:29;19.0;60.1
78696;SHT31;68030;51.980;5.646;2023-07-13T02:36:58;19.0;60.2
78696;SHT31;68030;51.980;5.646;2023-07-13T02:39:26;19.0;60.5
78696;SHT31;68030;51.980;5.646;2023-07-13T02:41:55;19.0;60.6
78696;SHT31;68030;51.980;5.646;2023-07-13T02:44:24;18.9;60.7
78696;SHT31;68030;51.980;5.646;2023-07-13T02:46:53;18.9;60.8
78696;SHT31;68030;51.980;5.646;2023-07-13T02:49:22;18.9;61.0
78696;SHT31;68030;51.980;5.646;2023-07-13T02:51:51;18.9;61.0
78696;SHT31;68030;51.980;5.646;2023-07-13T02:54:20;18.9;61.2
78696;SHT31;68030;51.980;5.646;2023-07-13T02:56:48;18.8;61.3
78696;SHT31;68030;51.980;5.646;2023-07-13T02:59:17;18.8;61.4
78696;SHT31;68030;51.980;5.646;2023-07-13T03:01:46;18.8;61.6
78696;SHT31;68030;51.980;5.646;2023-07-13T03:04:15;18.8;61.7
78696;SHT31;68030;51.980;5.646;2023-07-13T03:06:46;18.7;61.8
78696;SHT31;68030;51.980;5.646;2023-07-13T03:09:15;18.7;62.1
78696;SHT31;68030;51.980;5.646;2023-07-13T03:11:44;18.7;62.2
78696;SHT31;68030;51.980;5.646;2023-07-13T03:14:15;18.7;62.3
78696;SHT31;68030;51.980;5.646;2023-07-13T03:16:43;18.6;62.5
78696;SHT31;68030;51.980;5.646;2023-07-13T03:19:12;18.6;62.7
78696;SHT31;68030;51.980;5.646;2023-07-13T03:21:41;18.6;62.7
78696;SHT31;68030;51.980;5.646;2023-07-13T03:24:10;18.6;62.9
78696;SHT31;68030;51.980;5.646;2023-07-13T03:26:39;18.6;63.0
78696;SHT31;68030;51.980;5.646;2023-07-13T03:29:08;18.5;63.1
78696;SHT31;68030;51.980;5.646;2023-07-13T03:31:37;18.5;63.3
78696;SHT31;68030;51.980;5.646;2023-07-13T03:34:06;18.5;63.4
78696;SHT31;68030;51.980;5.646;2023-07-13T03:36:34;18.5;63.5
78696;SHT31;68030;51.980;5.646;2023-07-13T03:39:03;18.5;63.5
78696;SHT31;68030;51.980;5.646;2023-07-13T03:41:34;18.5;63.6
78696;SHT31;68030;51.980;5.646;2023-07-13T03:44:04;18.5;63.7
78696;SHT31;68030;51.980;5.646;2023-07-13T03:46:33;18.5;63.9
78696;SHT31;68030;51.980;5.646;2023-07-13T03:49:03;18.4;64.0
78696;SHT31;68030;51.980;5.646;2023-07-13T03:51:33;18.4;64.0
78696;SHT31;68030;51.980;5.646;2023-07-13T03:54:02;18.4;64.1
78696;SHT31;68030;51.980;5.646;2023-07-13T03:56:31;18.4;64.1
78696;SHT31;68030;51.980;5.646;2023-07-13T03:59:00;18.4;64.1
78696;SHT31;68030;51.980;5.646;2023-07-13T04:01:30;18.4;64.2
78696;SHT31;68030;51.980;5.646;2023-07-13T04:03:59;18.4;64.2
78696;SHT31;68030;51.980;5.646;2023-07-13T04:06:29;18.4;64.3
78696;SHT31;68030;51.980;5.646;2023-07-13T04:09:00;18.4;64.3
78696;SHT31;68030;51.980;5.646;2023-07-13T04:11:33;18.4;64.4
78696;SHT31;68030;51.980;5.646;2023-07-13T04:14:02;18.4;64.4
78696;SHT31;68030;51.980;5.646;2023-07-13T04:16:34;18.4;64.5
78696;SHT31;68030;51.980;5.646;2023-07-13T04:19:02;18.4;64.4
78696;SHT31;68030;51.980;5.646;2023-07-13T04:21:31;18.4;64.4
78696;SHT31;68030;51.980;5.646;2023-07-13T04:24:00;18.4;64.5
78696;SHT31;68030;51.980;5.646;2023-07-13T04:26:30;18.4;64.5
78696;SHT31;68030;51.980;5.646;2023-07-13T04:29:02;18.4;64.5
78696;SHT31;68030;51.980;5.646;2023-07-13T04:31:32;18.5;64.6
78696;SHT31;68030;51.980;5.646;2023-07-13T04:34:01;18.5;64.7
78696;SHT31;68030;51.980;5.646;2023-07-13T04:36:30;18.5;64.7
78696;SHT31;68030;51.980;5.646;2023-07-13T04:38:58;18.5;64.8
78696;SHT31;68030;51.980;5.646;2023-07-13T04:41:27;18.5;64.8
78696;SHT31;68030;51.980;5.646;2023-07-13T04:43:56;18.5;64.9
78696;SHT31;68030;51.980;5.646;2023-07-13T04:46:27;18.5;65.0
78696;SHT31;68030;51.980;5.646;2023-07-13T04:48:56;18.6;65.0
78696;SHT31;68030;51.980;5.646;2023-07-13T04:51:25;18.6;65.0
78696;SHT31;68030;51.980;5.646;2023-07-13T04:53:54;18.6;65.0
78696;SHT31;68030;51.980;5.646;2023-07-13T04:56:23;18.7;65.0
78696;SHT31;68030;51.980;5.646;2023-07-13T04:58:51;18.7;64.9
78696;SHT31;68030;51.980;5.646;2023-07-13T05:01:20;18.8;64.8
78696;SHT31;68030;51.980;5.646;2023-07-13T05:03:49;18.9;64.9
78696;SHT31;68030;51.980;5.646;2023-07-13T05:06:17;18.9;64.7
78696;SHT31;68030;51.980;5.646;2023-07-13T05:08:46;19.0;64.7
78696;SHT31;68030;51.980;5.646;2023-07-13T05:11:15;19.0;64.5
78696;SHT31;68030;51.980;5.646;2023-07-13T05:13:43;19.0;64.4
78696;SHT31;68030;51.980;5.646;2023-07-13T05:16:12;19.1;64.6
78696;SHT31;68030;51.980;5.646;2023-07-13T05:18:41;19.1;64.5
78696;SHT31;68030;51.980;5.646;2023-07-13T05:21:11;19.1;64.5
78696;SHT31;68030;51.980;5.646;2023-07-13T05:23:40;19.2;64.6
78696;SHT31;68030;51.980;5.646;2023-07-13T05:26:11;19.2;64.5
78696;SHT31;68030;51.980;5.646;2023-07-13T05:28:40;19.3;64.3
78696;SHT31;68030;51.980;5.646;2023-07-13T05:31:10;19.3;64.2
78696;SHT31;68030;51.980;5.646;2023-07-13T05:33:39;19.4;64.2
78696;SHT31;68030;51.980;5.646;2023-07-13T05:36:09;19.4;64.0
78696;SHT31;68030;51.980;5.646;2023-07-13T05:38:37;19.4;64.1
78696;SHT31;68030;51.980;5.646;2023-07-13T05:41:07;19.5;64.2
78696;SHT31;68030;51.980;5.646;2023-07-13T05:43:35;19.5;64.2
78696;SHT31;68030;51.980;5.646;2023-07-13T05:46:04;19.6;64.1
78696;SHT31;68030;51.980;5.646;2023-07-13T05:48:33;19.6;64.2
78696;SHT31;68030;51.980;5.646;2023-07-13T05:51:02;19.7;64.3
78696;SHT31;68030;51.980;5.646;2023-07-13T05:53:31;19.8;63.9
78696;SHT31;68030;51.980;5.646;2023-07-13T05:56:00;19.9;63.9
78696;SHT31;68030;51.980;5.646;2023-07-13T05:58:30;19.9;63.6
78696;SHT31;68030;51.980;5.646;2023-07-13T06:01:04;20.0;63.7
78696;SHT31;68030;51.980;5.646;2023-07-13T06:03:34;20.0;63.8
78696;SHT31;68030;51.980;5.646;2023-07-13T06:06:05;20.0;63.9
78696;SHT31;68030;51.980;5.646;2023-07-13T06:08:34;20.0;64.0
78696;SHT31;68030;51.980;5.646;2023-07-13T06:11:05;20.0;64.1
78696;SHT31;68030;51.980;5.646;2023-07-13T06:13:34;20.1;64.3
78696;SHT31;68030;51.980;5.646;2023-07-13T06:16:04;20.1;64.4
78696;SHT31;68030;51.980;5.646;2023-07-13T06:18:34;20.1;64.6
78696;SHT31;68030;51.980;5.646;2023-07-13T06:21:08;20.2;64.4
78696;SHT31;68030;51.980;5.646;2023-07-13T06:23:38;20.2;64.2
78696;SHT31;68030;51.980;5.646;2023-07-13T06:26:08;20.3;64.2
78696;SHT31;68030;51.980;5.646;2023-07-13T06:28:37;20.3;64.3
78696;SHT31;68030;51.980;5.646;2023-07-13T06:31:08;20.3;64.4
78696;SHT31;68030;51.980;5.646;2023-07-13T06:33:38;20.4;64.4
78696;SHT31;68030;51.980;5.646;2023-07-13T06:36:08;20.4;64.8
78696;SHT31;68030;51.980;5.646;2023-07-13T06:38:38;20.5;64.2
78696;SHT31;68030;51.980;5.646;2023-07-13T06:41:08;20.6;64.1
78696;SHT31;68030;51.980;5.646;2023-07-13T06:43:36;20.7;63.8
78696;SHT31;68030;51.980;5.646;2023-07-13T06:46:05;20.9;63.4
78696;SHT31;68030;51.980;5.646;2023-07-13T06:48:34;21.0;63.1
78696;SHT31;68030;51.980;5.646;2023-07-13T06:51:04;21.1;62.5
78696;SHT31;68030;51.980;5.646;2023-07-13T06:53:33;21.2;61.9
78696;SHT31;68030;51.980;5.646;2023-07-13T06:56:02;21.2;61.7
78696;SHT31;68030;51.980;5.646;2023-07-13T06:58:34;21.2;61.5
78696;SHT31;68030;51.980;5.646;2023-07-13T07:01:03;21.3;61.6
78696;SHT31;68030;51.980;5.646;2023-07-13T07:03:32;21.3;61.8
78696;SHT31;68030;51.980;5.646;2023-07-13T07:06:15;21.4;61.3
78696;SHT31;68030;51.980;5.646;2023-07-13T07:08:45;21.4;61.0
78696;SHT31;68030;51.980;5.646;2023-07-13T07:11:22;21.5;61.0
78696;SHT31;68030;51.980;5.646;2023-07-13T07:13:53;21.5;60.9
78696;SHT31;68030;51.980;5.646;2023-07-13T07:16:23;21.6;60.8
78696;SHT31;68030;51.980;5.646;2023-07-13T07:18:53;21.6;60.2
78696;SHT31;68030;51.980;5.646;2023-07-13T07:21:22;21.7;60.4
78696;SHT31;68030;51.980;5.646;2023-07-13T07:23:52;21.7;60.4
78696;SHT31;68030;51.980;5.646;2023-07-13T07:26:23;21.8;60.4
78696;SHT31;68030;51.980;5.646;2023-07-13T07:28:52;21.8;59.7
78696;SHT31;68030;51.980;5.646;2023-07-13T07:31:21;21.8;60.2
78696;SHT31;68030;51.980;5.646;2023-07-13T07:33:49;21.9;59.7
78696;SHT31;68030;51.980;5.646;2023-07-13T07:36:18;22.0;59.7
78696;SHT31;68030;51.980;5.646;2023-07-13T07:38:47;22.0;59.4
78696;SHT31;68030;51.980;5.646;2023-07-13T07:41:16;22.1;59.4
78696;SHT31;68030;51.980;5.646;2023-07-13T07:43:46;22.1;58.5
78696;SHT31;68030;51.980;5.646;2023-07-13T07:46:14;22.1;58.1
78696;SHT31;68030;51.980;5.646;2023-07-13T07:48:43;22.1;58.7
78696;SHT31;68030;51.980;5.646;2023-07-13T07:51:12;22.2;59.0
78696;SHT31;68030;51.980;5.646;2023-07-13T07:53:41;22.2;58.3
78696;SHT31;68030;51.980;5.646;2023-07-13T07:56:10;22.2;57.7
78696;SHT31;68030;51.980;5.646;2023-07-13T07:58:39;22.3;58.0
78696;SHT31;68030;51.980;5.646;2023-07-13T08:01:08;22.3;57.8
78696;SHT31;68030;51.980;5.646;2023-07-13T08:03:37;22.3;57.5
78696;SHT31;68030;51.980;5.646;2023-07-13T08:06:06;22.4;57.5
78696;SHT31;68030;51.980;5.646;2023-07-13T08:08:38;22.4;57.2
78696;SHT31;68030;51.980;5.646;2023-07-13T08:11:08;22.5;58.0
78696;SHT31;68030;51.980;5.646;2023-07-13T08:13:38;22.6;57.7
78696;SHT31;68030;51.980;5.646;2023-07-13T08:16:07;22.7;56.8
78696;SHT31;68030;51.980;5.646;2023-07-13T08:18:38;22.8;56.5
78696;SHT31;68030;51.980;5.646;2023-07-13T08:21:08;22.8;56.3
78696;SHT31;68030;51.980;5.646;2023-07-13T08:23:37;22.9;56.2
78696;SHT31;68030;51.980;5.646;2023-07-13T08:26:08;22.9;56.2
78696;SHT31;68030;51.980;5.646;2023-07-13T08:28:38;23.0;56.2
78696;SHT31;68030;51.980;5.646;2023-07-13T08:31:07;23.0;56.1
78696;SHT31;68030;51.980;5.646;2023-07-13T08:33:37;23.0;55.8
78696;SHT31;68030;51.980;5.646;2023-07-13T08:36:09;23.0;56.2
78696;SHT31;68030;51.980;5.646;2023-07-13T08:38:38;23.0;56.7
78696;SHT31;68030;51.980;5.646;2023-07-13T08:41:13;23.0;56.2
78696;SHT31;68030;51.980;5.646;2023-07-13T08:43:46;23.1;54.9
78696;SHT31;68030;51.980;5.646;2023-07-13T08:46:21;23.2;53.5
78696;SHT31;68030;51.980;5.646;2023-07-13T08:48:55;23.4;53.0
78696;SHT31;68030;51.980;5.646;2023-07-13T08:51:40;23.5;52.2
78696;SHT31;68030;51.980;5.646;2023-07-13T08:54:21;23.6;51.1
78696;SHT31;68030;51.980;5.646;2023-07-13T08:56:54;23.7;50.2
78696;SHT31;68030;51.980;5.646;2023-07-13T08:59:27;23.8;50.9
78696;SHT31;68030;51.980;5.646;2023-07-13T09:02:16;23.9;52.3
78696;SHT31;68030;51.980;5.646;2023-07-13T09:04:53;23.9;50.4
78696;SHT31;68030;51.980;5.646;2023-07-13T09:07:33;24.0;50.9
78696;SHT31;68030;51.980;5.646;2023-07-13T09:10:15;24.0;49.9
78696;SHT31;68030;51.980;5.646;2023-07-13T09:12:53;23.9;49.8
78696;SHT31;68030;51.980;5.646;2023-07-13T09:15:31;23.9;50.9
78696;SHT31;68030;51.980;5.646;2023-07-13T09:18:11;23.8;51.5
78696;SHT31;68030;51.980;5.646;2023-07-13T09:20:47;23.7;51.4
78696;SHT31;68030;51.980;5.646;2023-07-13T09:23:19;23.6;51.8
78696;SHT31;68030;51.980;5.646;2023-07-13T09:25:53;23.6;52.9
78696;SHT31;68030;51.980;5.646;2023-07-13T09:28:27;23.5;53.9
78696;SHT31;68030;51.980;5.646;2023-07-13T09:31:03;23.3;54.2
78696;SHT31;68030;51.980;5.646;2023-07-13T09:33:32;23.2;54.8
78696;SHT31;68030;51.980;5.646;2023-07-13T09:36:16;23.1;55.9
78696;SHT31;68030;51.980;5.646;2023-07-13T09:38:47;23.0;57.1
78696;SHT31;68030;51.980;5.646;2023-07-13T09:41:23;23.0;57.2
78696;SHT31;68030;51.980;5.646;2023-07-13T09:44:09;22.9;57.7
78696;SHT31;68030;51.980;5.646;2023-07-13T09:46:44;22.9;56.8
78696;SHT31;68030;51.980;5.646;2023-07-13T09:49:14;22.9;56.7
78696;SHT31;68030;51.980;5.646;2023-07-13T09:51:43;22.9;56.5
78696;SHT31;68030;51.980;5.646;2023-07-13T09:54:24;22.9;55.7
78696;SHT31;68030;51.980;5.646;2023-07-13T09:56:56;23.0;54.3
78696;SHT31;68030;51.980;5.646;2023-07-13T09:59:30;23.0;55.0
78696;SHT31;68030;51.980;5.646;2023-07-13T10:02:00;23.1;54.7
78696;SHT31;68030;51.980;5.646;2023-07-13T10:04:34;23.1;55.2
78696;SHT31;68030;51.980;5.646;2023-07-13T10:07:12;23.2;54.8
78696;SHT31;68030;51.980;5.646;2023-07-13T10:09:41;23.4;53.2
78696;SHT31;68030;51.980;5.646;2023-07-13T10:12:15;23.5;53.4
78696;SHT31;68030;51.980;5.646;2023-07-13T10:14:44;23.5;54.0
78696;SHT31;68030;51.980;5.646;2023-07-13T10:17:14;23.6;55.0
78696;SHT31;68030;51.980;5.646;2023-07-13T10:19:50;23.6;54.7
78696;SHT31;68030;51.980;5.646;2023-07-13T10:22:26;23.7;53.9
78696;SHT31;68030;51.980;5.646;2023-07-13T10:24:57;23.7;54.2
78696;SHT31;68030;51.980;5.646;2023-07-13T10:27:33;23.8;53.3
78696;SHT31;68030;51.980;5.646;2023-07-13T10:30:12;23.8;53.1
78696;SHT31;68030;51.980;5.646;2023-07-13T10:32:45;23.8;53.5
78696;SHT31;68030;51.980;5.646;2023-07-13T10:35:17;23.9;53.5
78696;SHT31;68030;51.980;5.646;2023-07-13T10:37:50;24.0;52.0
78696;SHT31;68030;51.980;5.646;2023-07-13T10:40:25;24.1;50.7
78696;SHT31;68030;51.980;5.646;2023-07-13T10:42:59;24.1;48.6
78696;SHT31;68030;51.980;5.646;2023-07-13T10:45:35;24.2;49.7
78696;SHT31;68030;51.980;5.646;2023-07-13T10:48:12;24.2;47.6
78696;SHT31;68030;51.980;5.646;2023-07-13T10:50:44;24.2;47.6
78696;SHT31;68030;51.980;5.646;2023-07-13T10:53:21;24.3;49.1
78696;SHT31;68030;51.980;5.646;2023-07-13T10:56:00;24.3;48.9
78696;SHT31;68030;51.980;5.646;2023-07-13T10:58:36;24.4;48.9
78696;SHT31;68030;51.980;5.646;2023-07-13T11:01:08;24.5;51.6
78696;SHT31;68030;51.980;5.646;2023-07-13T11:03:49;24.5;53.3
78696;SHT31;68030;51.980;5.646;2023-07-13T11:06:32;24.5;52.4
78696;SHT31;68030;51.980;5.646;2023-07-13T11:09:32;24.4;53.9
78696;SHT31;68030;51.980;5.646;2023-07-13T11:12:08;24.4;53.8
78696;SHT31;68030;51.980;5.646;2023-07-13T11:15:03;24.4;51.6
78696;SHT31;68030;51.980;5.646;2023-07-13T11:17:45;24.4;50.4
78696;SHT31;68030;51.980;5.646;2023-07-13T11:20:35;24.5;50.5
78696;SHT31;68030;51.980;5.646;2023-07-13T11:23:29;24.5;50.0
78696;SHT31;68030;51.980;5.646;2023-07-13T11:26:00;24.6;51.5
78696;SHT31;68030;51.980;5.646;2023-07-13T11:28:32;24.7;50.5
78696;SHT31;68030;51.980;5.646;2023-07-13T11:31:16;24.8;49.6
78696;SHT31;68030;51.980;5.646;2023-07-13T11:33:56;24.9;50.1
78696;SHT31;68030;51.980;5.646;2023-07-13T11:36:38;25.0;49.5
78696;SHT31;68030;51.980;5.646;2023-07-13T11:39:18;25.1;49.4
78696;SHT31;68030;51.980;5.646;2023-07-13T11:41:53;25.2;48.9
78696;SHT31;68030;51.980;5.646;2023-07-13T11:44:26;25.2;49.5
78696;SHT31;68030;51.980;5.646;2023-07-13T11:46:57;25.3;48.8
78696;SHT31;68030;51.980;5.646;2023-07-13T11:49:38;25.3;48.7
78696;SHT31;68030;51.980;5.646;2023-07-13T11:52:13;25.3;48.7
78696;SHT31;68030;51.980;5.646;2023-07-13T11:54:48;25.3;48.4
78696;SHT31;68030;51.980;5.646;2023-07-13T11:57:26;25.3;46.1
78696;SHT31;68030;51.980;5.646;2023-07-13T11:59:56;25.3;46.7
78696;SHT31;68030;51.980;5.646;2023-07-13T12:02:31;25.3;45.1
78696;SHT31;68030;51.980;5.646;2023-07-13T12:05:03;25.3;45.2
78696;SHT31;68030;51.980;5.646;2023-07-13T12:07:36;25.3;44.9
78696;SHT31;68030;51.980;5.646;2023-07-13T12:10:19;25.3;46.2
78696;SHT31;68030;51.980;5.646;2023-07-13T12:12:52;25.4;45.8
78696;SHT31;68030;51.980;5.646;2023-07-13T12:15:23;25.4;46.6
78696;SHT31;68030;51.980;5.646;2023-07-13T12:17:55;25.4;46.4
78696;SHT31;68030;51.980;5.646;2023-07-13T12:20:28;25.5;46.3
78696;SHT31;68030;51.980;5.646;2023-07-13T12:22:59;25.5;45.7
78696;SHT31;68030;51.980;5.646;2023-07-13T12:25:32;25.5;46.1
78696;SHT31;68030;51.980;5.646;2023-07-13T12:28:21;25.6;44.4
78696;SHT31;68030;51.980;5.646;2023-07-13T12:30:59;25.7;44.5
78696;SHT31;68030;51.980;5.646;2023-07-13T12:33:31;25.8;44.3
78696;SHT31;68030;51.980;5.646;2023-07-13T12:36:04;25.8;45.5
78696;SHT31;68030;51.980;5.646;2023-07-13T12:38:34;25.9;44.2
78696;SHT31;68030;51.980;5.646;2023-07-13T12:41:03;26.0;42.6
78696;SHT31;68030;51.980;5.646;2023-07-13T12:43:36;26.1;42.2
78696;SHT31;68030;51.980;5.646;2023-07-13T12:46:18;26.1;41.8
78696;SHT31;68030;51.980;5.646;2023-07-13T12:48:52;26.2;41.9
78696;SHT31;68030;51.980;5.646;2023-07-13T12:51:26;26.3;42.0
78696;SHT31;68030;51.980;5.646;2023-07-13T12:54:14;26.4;40.8
78696;SHT31;68030;51.980;5.646;2023-07-13T12:56:45;26.4;41.8
78696;SHT31;68030;51.980;5.646;2023-07-13T12:59:21;26.4;41.2
78696;SHT31;68030;51.980;5.646;2023-07-13T13:01:53;26.4;41.3
78696;SHT31;68030;51.980;5.646;2023-07-13T13:04:23;26.4;41.1
78696;SHT31;68030;51.980;5.646;2023-07-13T13:07:03;26.4;40.5
78696;SHT31;68030;51.980;5.646;2023-07-13T13:09:36;26.5;39.9
78696;SHT31;68030;51.980;5.646;2023-07-13T13:12:05;26.5;40.1
78696;SHT31;68030;51.980;5.646;2023-07-13T13:14:34;26.5;40.0
78696;SHT31;68030;51.980;5.646;2023-07-13T13:17:16;26.5;38.9
78696;SHT31;68030;51.980;5.646;2023-07-13T13:19:50;26.5;40.1
78696;SHT31;68030;51.980;5.646;2023-07-13T13:22:20;26.6;39.9
78696;SHT31;68030;51.980;5.646;2023-07-13T13:24:50;26.6;40.0
78696;SHT31;68030;51.980;5.646;2023-07-13T13:27:21;26.6;40.2
78696;SHT31;68030;51.980;5.646;2023-07-13T13:29:51;26.6;40.8
78696;SHT31;68030;51.980;5.646;2023-07-13T13:32:21;26.7;41.4
78696;SHT31;68030;51.980;5.646;2023-07-13T13:34:50;26.8;41.0
78696;SHT31;68030;51.980;5.646;2023-07-13T13:37:23;26.8;39.5
78696;SHT31;68030;51.980;5.646;2023-07-13T13:39:54;26.9;39.7
78696;SHT31;68030;51.980;5.646;2023-07-13T13:42:23;26.9;39.8
78696;SHT31;68030;51.980;5.646;2023-07-13T13:44:54;26.9;39.9
78696;SHT31;68030;51.980;5.646;2023-07-13T13:47:30;27.0;39.5
78696;SHT31;68030;51.980;5.646;2023-07-13T13:50:04;27.0;40.9
78696;SHT31;68030;51.980;5.646;2023-07-13T13:52:38;27.0;40.1
78696;SHT31;68030;51.980;5.646;2023-07-13T13:55:14;27.0;40.1
78696;SHT31;68030;51.980;5.646;2023-07-13T13:57:45;27.0;39.8
78696;SHT31;68030;51.980;5.646;2023-07-13T14:00:16;27.0;41.1
78696;SHT31;68030;51.980;5.646;2023-07-13T14:02:48;27.0;39.3
78696;SHT31;68030;51.980;5.646;2023-07-13T14:05:24;27.0;38.7
78696;SHT31;68030;51.980;5.646;2023-07-13T14:07:55;27.0;37.9
78696;SHT31;68030;51.980;5.646;2023-07-13T14:10:23;26.9;38.6
78696;SHT31;68030;51.980;5.646;2023-07-13T14:12:54;26.9;38.8
78696;SHT31;68030;51.980;5.646;2023-07-13T14:15:28;26.9;39.0
78696;SHT31;68030;51.980;5.646;2023-07-13T14:17:58;26.8;38.8
78696;SHT31;68030;51.980;5.646;2023-07-13T14:20:26;26.8;39.3
78696;SHT31;68030;51.980;5.646;2023-07-13T14:22:56;26.9;39.0
78696;SHT31;68030;51.980;5.646;2023-07-13T14:25:25;26.9;40.2
78696;SHT31;68030;51.980;5.646;2023-07-13T14:27:58;26.9;39.5
78696;SHT31;68030;51.980;5.646;2023-07-13T14:30:30;26.9;39.0
78696;SHT31;68030;51.980;5.646;2023-07-13T14:32:59;26.9;38.2
78696;SHT31;68030;51.980;5.646;2023-07-13T14:35:28;27.0;38.4
78696;SHT31;68030;51.980;5.646;2023-07-13T14:37:57;27.0;39.1
78696;SHT31;68030;51.980;5.646;2023-07-13T14:40:30;27.0;39.9
78696;SHT31;68030;51.980;5.646;2023-07-13T14:42:59;26.9;39.8
78696;SHT31;68030;51.980;5.646;2023-07-13T14:45:30;26.9;40.4
78696;SHT31;68030;51.980;5.646;2023-07-13T14:48:04;26.9;40.2
78696;SHT31;68030;51.980;5.646;2023-07-13T14:50:33;26.9;38.6
78696;SHT31;68030;51.980;5.646;2023-07-13T14:53:02;26.8;37.7
78696;SHT31;68030;51.980;5.646;2023-07-13T14:55:31;26.8;38.0
78696;SHT31;68030;51.980;5.646;2023-07-13T14:58:02;26.7;38.2
78696;SHT31;68030;51.980;5.646;2023-07-13T15:00:31;26.7;38.4
78696;SHT31;68030;51.980;5.646;2023-07-13T15:03:00;26.7;38.3
78696;SHT31;68030;51.980;5.646;2023-07-13T15:05:32;26.7;38.9
78696;SHT31;68030;51.980;5.646;2023-07-13T15:08:02;26.7;38.9
78696;SHT31;68030;51.980;5.646;2023-07-13T15:10:33;26.6;38.4
78696;SHT31;68030;51.980;5.646;2023-07-13T15:13:16;26.6;39.0
78696;SHT31;68030;51.980;5.646;2023-07-13T15:15:47;26.6;39.6
78696;SHT31;68030;51.980;5.646;2023-07-13T15:18:19;26.6;38.5
78696;SHT31;68030;51.980;5.646;2023-07-13T15:20:50;26.6;38.6
78696;SHT31;68030;51.980;5.646;2023-07-13T15:23:23;26.6;38.5
78696;SHT31;68030;51.980;5.646;2023-07-13T15:25:52;26.5;39.3
78696;SHT31;68030;51.980;5.646;2023-07-13T15:28:22;26.5;39.1
78696;SHT31;68030;51.980;5.646;2023-07-13T15:30:53;26.5;38.5
78696;SHT31;68030;51.980;5.646;2023-07-13T15:33:25;26.4;38.7
78696;SHT31;68030;51.980;5.646;2023-07-13T15:35:56;26.4;39.5
78696;SHT31;68030;51.980;5.646;2023-07-13T15:38:29;26.3;40.1
78696;SHT31;68030;51.980;5.646;2023-07-13T15:40:58;26.3;39.9
78696;SHT31;68030;51.980;5.646;2023-07-13T15:43:28;26.3;40.1
78696;SHT31;68030;51.980;5.646;2023-07-13T15:46:00;26.2;40.9
78696;SHT31;68030;51.980;5.646;2023-07-13T15:48:29;26.2;40.1
78696;SHT31;68030;51.980;5.646;2023-07-13T15:51:01;26.3;40.2
78696;SHT31;68030;51.980;5.646;2023-07-13T15:53:32;26.6;40.1
78696;SHT31;68030;51.980;5.646;2023-07-13T15:56:02;26.8;40.2
78696;SHT31;68030;51.980;5.646;2023-07-13T15:58:36;27.0;38.9
78696;SHT31;68030;51.980;5.646;2023-07-13T16:01:08;27.2;38.7
78696;SHT31;68030;51.980;5.646;2023-07-13T16:03:37;27.5;37.0
78696;SHT31;68030;51.980;5.646;2023-07-13T16:06:11;27.8;36.6
78696;SHT31;68030;51.980;5.646;2023-07-13T16:08:43;28.1;36.8
78696;SHT31;68030;51.980;5.646;2023-07-13T16:11:21;28.2;36.7
78696;SHT31;68030;51.980;5.646;2023-07-13T16:13:52;28.3;37.0
78696;SHT31;68030;51.980;5.646;2023-07-13T16:16:25;28.6;35.6
78696;SHT31;68030;51.980;5.646;2023-07-13T16:18:56;28.9;34.4
78696;SHT31;68030;51.980;5.646;2023-07-13T16:21:28;29.2;33.8
78696;SHT31;68030;51.980;5.646;2023-07-13T16:24:00;29.4;33.3
78696;SHT31;68030;51.980;5.646;2023-07-13T16:26:31;29.5;33.2
78696;SHT31;68030;51.980;5.646;2023-07-13T16:29:09;29.7;33.1
78696;SHT31;68030;51.980;5.646;2023-07-13T16:31:39;29.8;33.4